createdAt,value
2023-03-29T00:02:48.959Z,100400.52
2023-03-29T00:07:54.172Z,100398.20
2023-03-29T00:12:57.232Z,100401.98
2023-03-29T00:17:59.967Z,100406.52
2023-03-29T00:23:02.629Z,100410.09
2023-03-29T00:28:05.442Z,100407.16
2023-03-29T00:33:08.563Z,100403.96
2023-03-29T00:38:11.290Z,100406.67
2023-03-29T00:43:15.865Z,100399.39
2023-03-29T00:48:23.865Z,100396.61
2023-03-29T00:53:35.777Z,100398.52
2023-03-29T00:58:47.718Z,100401.95
2023-03-29T01:03:57.473Z,100401.73
2023-03-29T01:09:03.853Z,100402.94
2023-03-29T01:14:12.371Z,100403.90
2023-03-29T01:19:19.154Z,100403.22
2023-03-29T01:24:27.793Z,100396.28
2023-03-29T01:29:46.061Z,100389.09
2023-03-29T01:34:56.791Z,100392.92
2023-03-29T01:40:00.705Z,100391.29
2023-03-29T01:45:21.818Z,100384.92
2023-03-29T01:50:46.105Z,100389.06
2023-03-29T01:55:59.582Z,100387.41
2023-03-29T02:01:09.938Z,100381.95
2023-03-29T02:06:19.044Z,100388.66
2023-03-29T02:11:24.338Z,100393.73
2023-03-29T02:16:27.674Z,100393.78
2023-03-29T02:21:40.282Z,100393.23
2023-03-29T02:26:42.929Z,100399.65
2023-03-29T02:31:49.292Z,100394.13
2023-03-29T02:36:56.668Z,100393.85
2023-03-29T02:41:59.802Z,100393.64
2023-03-29T02:47:08.087Z,100398.67
2023-03-29T02:52:17.866Z,100389.90
2023-03-29T02:57:26.670Z,100388.67
2023-03-29T03:02:29.681Z,100392.99
2023-03-29T03:07:33.766Z,100394.44
2023-03-29T03:12:37.468Z,100395.80
2023-03-29T03:17:40.963Z,100388.98
2023-03-29T03:22:48.819Z,100386.84
2023-03-29T03:27:51.625Z,100388.06
2023-03-29T03:32:54.948Z,100395.52
2023-03-29T03:37:57.922Z,100403.19
2023-03-29T03:43:00.755Z,100403.27
2023-03-29T03:48:03.562Z,100405.84
2023-03-29T03:53:07.172Z,100405.80
2023-03-29T03:58:09.810Z,100398.56
2023-03-29T04:03:12.606Z,100400.40
2023-03-29T04:08:15.397Z,100400.29
2023-03-29T04:13:18.288Z,100400.58
2023-03-29T04:18:22.094Z,100395.42
2023-03-29T04:23:24.832Z,100395.51
2023-03-29T04:28:27.441Z,100402.97
2023-03-29T04:33:30.047Z,100400.05
2023-03-29T04:38:35.961Z,100397.73
2023-03-29T04:43:40.106Z,100409.69
2023-03-29T04:48:43.551Z,100401.07
2023-03-29T04:53:46.292Z,100402.98
2023-03-29T04:58:49.609Z,100406.21
2023-03-29T05:03:52.606Z,100405.63
2023-03-29T05:08:55.278Z,100410.70
2023-03-29T05:14:02.286Z,100413.33
2023-03-29T05:19:05.595Z,100410.63
2023-03-29T05:24:08.375Z,100407.48
2023-03-29T05:29:12.237Z,100403.87
2023-03-29T05:34:14.933Z,100409.48
2023-03-29T05:39:17.739Z,100411.75
2023-03-29T05:44:20.723Z,100411.46
2023-03-29T05:49:23.843Z,100410.77
2023-03-29T05:54:27.207Z,100411.29
2023-03-29T05:59:29.867Z,100407.11
2023-03-29T06:04:33.598Z,100414.85
2023-03-29T06:09:36.345Z,100414.85
2023-03-29T06:14:39.014Z,100420.58
2023-03-29T06:19:41.875Z,100422.74
2023-03-29T06:24:44.473Z,100428.85
2023-03-29T06:29:48.122Z,100426.48
2023-03-29T06:34:50.930Z,100426.66
2023-03-29T06:39:53.893Z,100425.63
2023-03-29T06:44:56.518Z,100427.84
2023-03-29T06:49:59.215Z,100425.56
2023-03-29T06:55:01.939Z,100432.17
2023-03-29T07:00:19.245Z,100434.15
2023-03-29T07:05:22.297Z,100432.74
2023-03-29T07:10:28.259Z,100431.86
2023-03-29T07:15:30.895Z,100429.55
2023-03-29T07:20:33.814Z,100433.76
2023-03-29T07:25:38.226Z,100429.50
2023-03-29T07:30:40.882Z,100432.30
2023-03-29T07:35:45.152Z,100425.79
2023-03-29T07:40:47.996Z,100428.88
2023-03-29T07:45:52.663Z,100430.06
2023-03-29T07:50:55.973Z,100433.98
2023-03-29T07:55:58.625Z,100435.70
2023-03-29T08:01:01.647Z,100429.30
2023-03-29T08:06:05.034Z,100428.02
2023-03-29T08:11:08.862Z,100433.99
2023-03-29T08:16:11.816Z,100434.42
2023-03-29T08:21:14.788Z,100435.92
2023-03-29T08:26:18.108Z,100430.30
2023-03-29T08:31:20.873Z,100427.46
2023-03-29T08:36:23.559Z,100427.64
2023-03-29T08:41:32.170Z,100423.52
2023-03-29T08:47:08.322Z,100421.08
2023-03-29T08:52:28.931Z,100418.86
2023-03-29T08:57:36.074Z,100420.01
2023-03-29T09:02:41.410Z,100419.45
2023-03-29T09:07:44.323Z,100418.02
2023-03-29T09:13:15.454Z,100416.36
2023-03-29T09:18:33.997Z,100414.05
2023-03-29T09:24:06.760Z,100406.88
2023-03-29T09:29:22.185Z,100405.85
2023-03-29T09:34:43.657Z,100409.59
2023-03-29T09:39:46.319Z,100405.13
2023-03-29T09:44:57.160Z,100401.96
2023-03-29T09:50:08.489Z,100401.05
2023-03-29T09:55:27.696Z,100391.84
2023-03-29T10:00:32.018Z,100389.92
2023-03-29T10:05:39.979Z,100385.79
2023-03-29T10:10:42.725Z,100386.66
2023-03-29T10:16:02.197Z,100383.39
2023-03-29T10:21:05.935Z,100381.40
2023-03-29T10:26:23.854Z,100374.29
2023-03-29T10:31:29.546Z,100373.95
2023-03-29T10:36:32.794Z,100372.53
2023-03-29T10:41:35.999Z,100369.53
2023-03-29T10:46:43.983Z,100362.44
2023-03-29T10:51:49.325Z,100357.69
2023-03-29T10:57:02.512Z,100347.78
2023-03-29T11:02:36.972Z,100344.96
2023-03-29T11:08:21.339Z,100346.06
2023-03-29T11:13:29.730Z,100334.49
2023-03-29T11:18:50.507Z,100329.30
2023-03-29T11:24:33.958Z,100325.50
2023-03-29T11:29:57.045Z,100321.89
2023-03-29T11:35:24.528Z,100315.79
2023-03-29T11:40:53.273Z,100313.20
2023-03-29T11:46:03.631Z,100306.55
2023-03-29T11:51:16.239Z,100305.03
2023-03-29T11:56:29.615Z,100297.46
2023-03-29T12:01:39.072Z,100284.34
2023-03-29T12:07:17.352Z,100274.09
2023-03-29T12:12:27.102Z,100268.86
2023-03-29T12:18:01.850Z,100270.25
2023-03-29T12:23:07.352Z,100267.79
2023-03-29T12:28:18.202Z,100267.38
2023-03-29T12:33:40.173Z,100262.89
2023-03-29T12:38:44.027Z,100258.56
2023-03-29T12:43:48.062Z,100258.23
2023-03-29T12:48:57.089Z,100252.83
2023-03-29T12:54:15.876Z,100246.40
2023-03-29T12:59:46.035Z,100247.63
2023-03-29T13:04:57.185Z,100243.27
2023-03-29T13:10:08.265Z,100242.31
2023-03-29T13:15:17.588Z,100243.06
2023-03-29T13:20:37.297Z,100240.80
2023-03-29T13:26:19.840Z,100234.64
2023-03-29T13:31:52.240Z,100227.54
2023-03-29T13:37:08.032Z,100225.54
2023-03-29T13:42:22.392Z,100218.31
2023-03-29T13:47:43.194Z,100209.34
2023-03-29T13:53:05.116Z,100212.21
2023-03-29T13:58:16.020Z,100208.77
2023-03-29T14:03:26.143Z,100201.95
2023-03-29T14:08:37.369Z,100198.31
2023-03-29T14:13:40.078Z,100197.92
2023-03-29T14:18:44.707Z,100195.11
2023-03-29T14:24:02.396Z,100201.19
2023-03-29T14:29:07.141Z,100193.68
2023-03-29T14:34:15.916Z,100190.57
2023-03-29T14:39:21.420Z,100180.94
2023-03-29T14:44:27.095Z,100177.39
2023-03-29T14:49:30.268Z,100180.23
2023-03-29T14:54:34.009Z,100170.91
2023-03-29T14:59:38.802Z,100170.01
2023-03-29T15:04:41.472Z,100162.74
2023-03-29T15:09:45.363Z,100160.14
2023-03-29T15:14:51.143Z,100161.36
2023-03-29T15:19:59.007Z,100158.11
2023-03-29T15:25:02.090Z,100155.19
2023-03-29T15:30:12.832Z,100146.73
2023-03-29T15:35:24.584Z,100137.09
2023-03-29T15:40:28.169Z,100128.26
2023-03-29T15:45:30.817Z,100124.42
2023-03-29T15:50:34.012Z,100112.91
2023-03-29T15:55:41.187Z,100113.94
2023-03-29T16:00:48.499Z,100116.92
2023-03-29T16:05:54.126Z,100106.70
2023-03-29T16:10:56.759Z,100104.55
2023-03-29T16:15:59.431Z,100104.59
2023-03-29T16:21:02.159Z,100090.38
2023-03-29T16:26:06.386Z,100091.67
2023-03-29T16:31:13.729Z,100083.44
2023-03-29T16:36:16.949Z,100082.72
2023-03-29T16:41:19.901Z,100072.56
2023-03-29T16:46:23.268Z,100066.01
2023-03-29T16:51:26.425Z,100060.90
2023-03-29T16:56:29.669Z,100065.66
2023-03-29T17:01:32.564Z,100065.70
2023-03-29T17:06:35.974Z,100061.05
2023-03-29T17:11:38.928Z,100060.90
2023-03-29T17:16:41.854Z,100054.38
2023-03-29T17:21:45.948Z,100058.54
2023-03-29T17:26:49.335Z,100056.09
2023-03-29T17:31:52.014Z,100058.08
2023-03-29T17:36:56.297Z,100058.11
2023-03-29T17:41:59.672Z,100057.50
2023-03-29T17:47:02.591Z,100060.83
2023-03-29T17:52:05.346Z,100057.23
2023-03-29T17:57:08.287Z,100061.36
2023-03-29T18:02:19.280Z,100059.09
2023-03-29T18:07:22.018Z,100057.68
2023-03-29T18:12:26.204Z,100057.48
2023-03-29T18:17:29.252Z,100061.25
2023-03-29T18:22:34.123Z,100059.14
2023-03-29T18:27:39.250Z,100058.27
2023-03-29T18:32:43.360Z,100054.57
2023-03-29T18:37:47.366Z,100053.27
2023-03-29T18:42:52.211Z,100046.06
2023-03-29T18:47:57.798Z,100048.38
2023-03-29T18:53:01.660Z,100050.64
2023-03-29T18:58:07.204Z,100046.38
2023-03-29T19:03:12.200Z,100046.41
2023-03-29T19:08:15.092Z,100052.11
2023-03-29T19:13:18.430Z,100040.55
2023-03-29T19:18:22.191Z,100038.67
2023-03-29T19:23:28.614Z,100029.51
2023-03-29T19:28:33.130Z,100020.84
2023-03-29T19:33:35.766Z,100018.73
2023-03-29T19:38:38.489Z,100016.98
2023-03-29T19:43:44.124Z,100014.75
2023-03-29T19:48:48.930Z,100009.93
2023-03-29T19:53:54.048Z,100009.30
2023-03-29T19:59:03.229Z,100006.77
2023-03-29T20:04:09.302Z,100000.80
2023-03-29T20:09:12.963Z,99998.48
2023-03-29T20:14:16.276Z,99991.93
2023-03-29T20:19:24.657Z,99986.27
2023-03-29T20:24:27.901Z,99988.21
2023-03-29T20:29:33.161Z,99975.80
2023-03-29T20:34:36.008Z,99970.90
2023-03-29T20:39:38.621Z,99965.61
2023-03-29T20:44:41.271Z,99965.45
2023-03-29T20:49:46.895Z,99961.30
2023-03-29T20:54:50.520Z,99961.73
2023-03-29T20:59:53.369Z,99951.57
2023-03-29T21:05:00.194Z,99942.71
2023-03-29T21:10:03.055Z,99930.75
2023-03-29T21:15:10.209Z,99930.97
2023-03-29T21:20:14.688Z,99920.55
2023-03-29T21:25:17.402Z,99902.20
2023-03-29T21:30:20.045Z,99905.44
2023-03-29T21:35:22.674Z,99895.91
2023-03-29T21:40:25.378Z,99887.15
2023-03-29T21:45:28.037Z,99881.14
2023-03-29T21:50:33.374Z,99876.85
2023-03-29T21:55:36.538Z,99883.94
2023-03-29T22:00:39.259Z,99881.84
2023-03-29T22:05:42.251Z,99888.61
2023-03-29T22:10:44.865Z,99883.27
2023-03-29T22:15:49.746Z,99876.05
2023-03-29T22:20:52.418Z,99863.46
2023-03-29T22:25:55.288Z,99867.20
2023-03-29T22:31:01.875Z,99869.88
2023-03-29T22:36:22.806Z,99866.48
2023-03-29T22:41:27.556Z,99861.70
2023-03-29T22:46:30.303Z,99848.48
2023-03-29T22:51:33.101Z,99852.20
2023-03-29T22:56:35.735Z,99845.59
2023-03-29T23:01:38.447Z,99841.40
2023-03-29T23:06:41.554Z,99837.63
2023-03-29T23:11:44.180Z,99834.02
2023-03-29T23:16:47.509Z,99833.70
2023-03-29T23:21:50.551Z,99832.21
2023-03-29T23:26:53.160Z,99827.77
2023-03-29T23:31:56.920Z,99818.70
2023-03-29T23:36:59.723Z,99815.84
2023-03-29T23:42:03.428Z,99807.64
2023-03-29T23:47:06.180Z,99807.00
2023-03-29T23:52:10.337Z,99801.38
2023-03-29T23:57:13.087Z,99797.83
